Airfield :
LOGIN :

Register | Disclaimer

   EN    FR    IT 

 










Legend :    VFR   Marginal VFR   IFR   Intensive IFR   Very Intensive IFR
Visi :
Ceiling :
>= 8 km
>= 3000ft
5 to 8 km
1000 to 3000 ft
1500m to 5 km
500 to 1000 ft
800 to 1500m
200 to 500 ft
< 800m
< 200 ft
Symbols :   Thunderstorms  Fog  Heavy snow  Heavy precipitations  Wind > 20 kt
SIGMETs :     Misc.  Thunderstorms  Icing  Turbulence  Mountain Waves  Volcanic Ashes






- Airport Elevation : 1115 ft
- IATA code : GRZ


LOWG - Graz

CURRENT METAR :
  • 200250Z AUTO 33002KT 9999 NSC 02/01 Q1007

EXPIRED METARs :
  • 200220Z AUTO VRB01KT 9999 FEW070 02/00 Q1007
  • 200150Z AUTO VRB02KT 9999 FEW060 02/00 Q1007
  • 200120Z AUTO VRB01KT 9999 NSC 02/01 Q1007
  • 200050Z AUTO VRB01KT 9999 NSC 02/M00 Q1006
  • 200020Z AUTO VRB01KT 9999 NSC 02/01 Q1007
  • 192350Z AUTO VRB01KT 9999 NSC 03/01 Q1007
  • 192320Z AUTO VRB01KT 9999 FEW080 04/01 Q1007
  • 192250Z AUTO VRB02KT 9999 FEW080 04/01 Q1007
  • 192220Z AUTO VRB01KT 9999 FEW080 04/01 Q1007

TAF TAF LOWG
Valid from the 20 at 00:00 until the 21 at 00:00 UTC


192315Z 2000/2024 VRB03KT 9999 FEW060 TX11/2012Z TN03/2004Z
BECMG 2010/2012 34008KT
TEMPO 2012/2018 35015G25KT
PROB30
TEMPO 2012/2016 FEW050CB SCT055
BECMG 2019/2021 35005KT



MET'MAP, your aeronautical weather chart ! - Copyright ORBIFLY December 2007 - Disclaimer

ORBIFLY MET'MAP TEAM :

Programming & Development : Alexandra Zaïnal
Original concept : Baudouin d'Aumeries
Technical & hardware support : Manuel Goepfert
Assistance : Marc-Olivier Méhu




SOURCES & CREDITS :

   NOAA